sensor_id;sensor_type;location;lat;lon;timestamp;pressure;altitude;pressure_sealevel;temperature;humidity
46087;BME280;31824;49.648;8.640;2022-11-04T00:01:03;99302.28;;;10.93;100.00
46087;BME280;31824;49.648;8.640;2022-11-04T00:04:06;99293.56;;;10.94;100.00
46087;BME280;31824;49.648;8.640;2022-11-04T00:07:08;99281.25;;;10.93;100.00
46087;BME280;31824;49.648;8.640;2022-11-04T00:10:31;99283.72;;;10.92;100.00
46087;BME280;31824;49.648;8.640;2022-11-04T00:13:51;99278.25;;;10.89;100.00
46087;BME280;31824;49.648;8.640;2022-11-04T00:16:53;99279.03;;;10.88;100.00
46087;BME280;31824;49.648;8.640;2022-11-04T00:20:14;99261.31;;;10.85;100.00
46087;BME280;31824;49.648;8.640;2022-11-04T00:23:34;99262.94;;;10.83;100.00
46087;BME280;31824;49.648;8.640;2022-11-04T00:26:56;99256.78;;;10.83;100.00
46087;BME280;31824;49.648;8.640;2022-11-04T00:30:17;99258.25;;;10.79;100.00
46087;BME280;31824;49.648;8.640;2022-11-04T00:33:18;99252.09;;;10.78;100.00
46087;BME280;31824;49.648;8.640;2022-11-04T00:36:26;99252.88;;;10.77;100.00
46087;BME280;31824;49.648;8.640;2022-11-04T00:39:28;99259.97;;;10.78;100.00
46087;BME280;31824;49.648;8.640;2022-11-04T00:42:31;99275.47;;;10.75;100.00
46087;BME280;31824;49.648;8.640;2022-11-04T00:45:33;99272.84;;;10.75;100.00
46087;BME280;31824;49.648;8.640;2022-11-04T00:48:34;99278.22;;;10.77;100.00
46087;BME280;31824;49.648;8.640;2022-11-04T00:51:36;99282.56;;;10.76;100.00
46087;BME280;31824;49.648;8.640;2022-11-04T00:54:38;99280.72;;;10.75;100.00
46087;BME280;31824;49.648;8.640;2022-11-04T00:57:41;99285.75;;;10.72;100.00
46087;BME280;31824;49.648;8.640;2022-11-04T01:00:42;99294.69;;;10.74;100.00
46087;BME280;31824;49.648;8.640;2022-11-04T01:03:44;99305.03;;;10.73;100.00
46087;BME280;31824;49.648;8.640;2022-11-04T01:06:47;99315.44;;;10.71;100.00
46087;BME280;31824;49.648;8.640;2022-11-04T01:09:48;99316.38;;;10.72;100.00
46087;BME280;31824;49.648;8.640;2022-11-04T01:12:52;99315.22;;;10.68;100.00
46087;BME280;31824;49.648;8.640;2022-11-04T01:15:56;99317.06;;;10.69;100.00
46087;BME280;31824;49.648;8.640;2022-11-04T01:18:58;99321.63;;;10.72;100.00
46087;BME280;31824;49.648;8.640;2022-11-04T01:22:00;99316.94;;;10.68;100.00
46087;BME280;31824;49.648;8.640;2022-11-04T01:25:01;99308.78;;;10.64;100.00
46087;BME280;31824;49.648;8.640;2022-11-04T01:28:04;99317.06;;;10.69;100.00
46087;BME280;31824;49.648;8.640;2022-11-04T01:31:08;99310.97;;;10.70;100.00
46087;BME280;31824;49.648;8.640;2022-11-04T01:34:10;99314.31;;;10.68;100.00
46087;BME280;31824;49.648;8.640;2022-11-04T01:37:11;99315.78;;;10.64;100.00
46087;BME280;31824;49.648;8.640;2022-11-04T01:40:13;99327.84;;;10.62;100.00
46087;BME280;31824;49.648;8.640;2022-11-04T01:43:18;99322.38;;;10.59;100.00
46087;BME280;31824;49.648;8.640;2022-11-04T01:46:25;99323.97;;;10.57;100.00
46087;BME280;31824;49.648;8.640;2022-11-04T01:49:30;99332.41;;;10.53;100.00
46087;BME280;31824;49.648;8.640;2022-11-04T01:52:36;99329.53;;;10.50;100.00
46087;BME280;31824;49.648;8.640;2022-11-04T01:55:42;99329.78;;;10.53;100.00
46087;BME280;31824;49.648;8.640;2022-11-04T01:58:51;99333.88;;;10.49;100.00
46087;BME280;31824;49.648;8.640;2022-11-04T02:01:53;99329.53;;;10.50;100.00
46087;BME280;31824;49.648;8.640;2022-11-04T02:04:55;99340.03;;;10.50;100.00
46087;BME280;31824;49.648;8.640;2022-11-04T02:07:58;99319.94;;;10.50;100.00
46087;BME280;31824;49.648;8.640;2022-11-04T02:11:05;99324.81;;;10.45;100.00
46087;BME280;31824;49.648;8.640;2022-11-04T02:14:08;99324.75;;;10.56;100.00
46087;BME280;31824;49.648;8.640;2022-11-04T02:17:17;99325.56;;;10.55;100.00
46087;BME280;31824;49.648;8.640;2022-11-04T02:20:37;99331.59;;;10.54;100.00
46087;BME280;31824;49.648;8.640;2022-11-04T02:24:01;99345.66;;;10.54;100.00
46087;BME280;31824;49.648;8.640;2022-11-04T02:27:24;99349.31;;;10.56;100.00
46087;BME280;31824;49.648;8.640;2022-11-04T02:30:33;99347.63;;;10.57;100.00
46087;BME280;31824;49.648;8.640;2022-11-04T02:33:39;99361.28;;;10.53;100.00
46087;BME280;31824;49.648;8.640;2022-11-04T02:36:45;99361.84;;;10.49;100.00
46087;BME280;31824;49.648;8.640;2022-11-04T02:39:51;99363.44;;;10.46;100.00
46087;BME280;31824;49.648;8.640;2022-11-04T02:42:58;99364.09;;;10.44;100.00
46087;BME280;31824;49.648;8.640;2022-11-04T02:46:05;99362.75;;;10.49;100.00
46087;BME280;31824;49.648;8.640;2022-11-04T02:49:11;99353.59;;;10.44;100.00
46087;BME280;31824;49.648;8.640;2022-11-04T02:52:20;99354.66;;;10.46;100.00
46087;BME280;31824;49.648;8.640;2022-11-04T02:55:26;99354.66;;;10.46;100.00
46087;BME280;31824;49.648;8.640;2022-11-04T02:58:34;99362.81;;;10.39;100.00
46087;BME280;31824;49.648;8.640;2022-11-04T03:01:40;99373.19;;;10.37;100.00
46087;BME280;31824;49.648;8.640;2022-11-04T03:04:48;99369.22;;;10.42;100.00
46087;BME280;31824;49.648;8.640;2022-11-04T03:07:55;99365.59;;;10.40;100.00
46087;BME280;31824;49.648;8.640;2022-11-04T03:11:00;99385.22;;;10.45;100.00
46087;BME280;31824;49.648;8.640;2022-11-04T03:14:06;99393.41;;;10.60;100.00
46087;BME280;31824;49.648;8.640;2022-11-04T03:17:16;99368.31;;;10.64;100.00
46087;BME280;31824;49.648;8.640;2022-11-04T03:20:23;99358.91;;;10.56;100.00
46087;BME280;31824;49.648;8.640;2022-11-04T03:23:26;99383.03;;;10.40;100.00
46087;BME280;31824;49.648;8.640;2022-11-04T03:26:31;99375.31;;;10.31;100.00
46087;BME280;31824;49.648;8.640;2022-11-04T03:29:38;99388.91;;;10.47;100.00
46087;BME280;31824;49.648;8.640;2022-11-04T03:32:55;99414.66;;;10.41;100.00
46087;BME280;31824;49.648;8.640;2022-11-04T03:36:00;99410.66;;;10.24;100.00
46087;BME280;31824;49.648;8.640;2022-11-04T03:39:03;99395.66;;;10.34;100.00
46087;BME280;31824;49.648;8.640;2022-11-04T03:42:07;99406.41;;;10.37;100.00
46087;BME280;31824;49.648;8.640;2022-11-04T03:45:21;99398.53;;;10.26;100.00
46087;BME280;31824;49.648;8.640;2022-11-04T03:48:25;99408.78;;;10.34;100.00
46087;BME280;31824;49.648;8.640;2022-11-04T03:51:27;99402.25;;;10.18;100.00
46087;BME280;31824;49.648;8.640;2022-11-04T03:54:28;99400.78;;;10.00;100.00
46087;BME280;31824;49.648;8.640;2022-11-04T03:57:45;99411.06;;;9.86;100.00
46087;BME280;31824;49.648;8.640;2022-11-04T04:00:55;99388.69;;;10.02;100.00
46087;BME280;31824;49.648;8.640;2022-11-04T04:04:03;99390.78;;;10.06;100.00
46087;BME280;31824;49.648;8.640;2022-11-04T04:07:14;99378.28;;;10.13;100.00
46087;BME280;31824;49.648;8.640;2022-11-04T04:10:24;99391.19;;;10.00;100.00
46087;BME280;31824;49.648;8.640;2022-11-04T04:13:56;99398.72;;;9.85;100.00
46087;BME280;31824;49.648;8.640;2022-11-04T04:17:04;99396.88;;;9.84;100.00
46087;BME280;31824;49.648;8.640;2022-11-04T04:20:17;99404.16;;;9.76;100.00
46087;BME280;31824;49.648;8.640;2022-11-04T04:23:22;99395.47;;;9.77;100.00
46087;BME280;31824;49.648;8.640;2022-11-04T04:26:45;99389.31;;;9.67;100.00
46087;BME280;31824;49.648;8.640;2022-11-04T04:30:09;99400.88;;;9.69;100.00
46087;BME280;31824;49.648;8.640;2022-11-04T04:33:14;99399.31;;;9.60;100.00
46087;BME280;31824;49.648;8.640;2022-11-04T04:36:18;99388.59;;;9.47;100.00
46087;BME280;31824;49.648;8.640;2022-11-04T04:39:22;99377.09;;;9.24;100.00
46087;BME280;31824;49.648;8.640;2022-11-04T04:42:44;99375.13;;;9.22;100.00
46087;BME280;31824;49.648;8.640;2022-11-04T04:46:05;99378.56;;;9.21;100.00
46087;BME280;31824;49.648;8.640;2022-11-04T04:49:08;99381.19;;;9.21;100.00
46087;BME280;31824;49.648;8.640;2022-11-04T04:52:11;99383.25;;;9.04;100.00
46087;BME280;31824;49.648;8.640;2022-11-04T04:55:13;99379.22;;;8.87;100.00
46087;BME280;31824;49.648;8.640;2022-11-04T04:58:15;99372.56;;;8.91;100.00
46087;BME280;31824;49.648;8.640;2022-11-04T05:01:16;99363.91;;;9.02;100.00
46087;BME280;31824;49.648;8.640;2022-11-04T05:04:18;99363.09;;;8.93;100.00
46087;BME280;31824;49.648;8.640;2022-11-04T05:07:21;99375.41;;;8.94;100.00
46087;BME280;31824;49.648;8.640;2022-11-04T05:10:23;99369.91;;;9.01;100.00
46087;BME280;31824;49.648;8.640;2022-11-04T05:13:24;99368.88;;;8.89;100.00
46087;BME280;31824;49.648;8.640;2022-11-04T05:16:26;99379.19;;;8.77;100.00
46087;BME280;31824;49.648;8.640;2022-11-04T05:19:28;99377.38;;;8.86;100.00
46087;BME280;31824;49.648;8.640;2022-11-04T05:22:31;99375.03;;;9.00;100.00
46087;BME280;31824;49.648;8.640;2022-11-04T05:25:32;99370.97;;;9.03;100.00
46087;BME280;31824;49.648;8.640;2022-11-04T05:28:34;99373.72;;;9.05;100.00
46087;BME280;31824;49.648;8.640;2022-11-04T05:31:36;99367.13;;;9.20;100.00
46087;BME280;31824;49.648;8.640;2022-11-04T05:34:37;99364.94;;;9.25;100.00
46087;BME280;31824;49.648;8.640;2022-11-04T05:37:40;99360.84;;;9.39;100.00
46087;BME280;31824;49.648;8.640;2022-11-04T05:40:42;99370.78;;;9.43;100.00
46087;BME280;31824;49.648;8.640;2022-11-04T05:43:44;99360.72;;;9.37;100.00
46087;BME280;31824;49.648;8.640;2022-11-04T05:46:45;99357.97;;;9.36;100.00
46087;BME280;31824;49.648;8.640;2022-11-04T05:49:47;99348.75;;;9.41;100.00
46087;BME280;31824;49.648;8.640;2022-11-04T05:52:50;99351.53;;;9.42;100.00
46087;BME280;31824;49.648;8.640;2022-11-04T05:55:52;99352.44;;;9.43;100.00
46087;BME280;31824;49.648;8.640;2022-11-04T05:58:54;99355.31;;;9.46;100.00
46087;BME280;31824;49.648;8.640;2022-11-04T06:01:55;99352.44;;;9.43;100.00
46087;BME280;31824;49.648;8.640;2022-11-04T06:04:57;99350.72;;;9.54;100.00
46087;BME280;31824;49.648;8.640;2022-11-04T06:08:00;99359.22;;;9.51;100.00
46087;BME280;31824;49.648;8.640;2022-11-04T06:11:02;99360.53;;;9.56;100.00
46087;BME280;31824;49.648;8.640;2022-11-04T06:14:05;99362.22;;;9.56;100.00
46087;BME280;31824;49.648;8.640;2022-11-04T06:17:08;99359.34;;;9.63;100.00
46087;BME280;31824;49.648;8.640;2022-11-04T06:20:17;99374.53;;;9.67;100.00
46087;BME280;31824;49.648;8.640;2022-11-04T06:23:20;99374.94;;;9.61;100.00
46087;BME280;31824;49.648;8.640;2022-11-04T06:26:22;99388.06;;;9.51;100.00
46087;BME280;31824;49.648;8.640;2022-11-04T06:29:29;99390.28;;;9.57;100.00
46087;BME280;31824;49.648;8.640;2022-11-04T06:32:30;99382.94;;;9.63;100.00
46087;BME280;31824;49.648;8.640;2022-11-04T06:35:32;99393.97;;;9.59;100.00
46087;BME280;31824;49.648;8.640;2022-11-04T06:38:35;99384.91;;;9.66;100.00
46087;BME280;31824;49.648;8.640;2022-11-04T06:41:38;99388.97;;;9.62;100.00
46087;BME280;31824;49.648;8.640;2022-11-04T06:44:41;99392.88;;;9.67;100.00
46087;BME280;31824;49.648;8.640;2022-11-04T06:47:42;99388.31;;;9.65;100.00
46087;BME280;31824;49.648;8.640;2022-11-04T06:50:44;99389.31;;;9.67;100.00
46087;BME280;31824;49.648;8.640;2022-11-04T06:53:47;99379.72;;;9.77;100.00
46087;BME280;31824;49.648;8.640;2022-11-04T06:56:49;99386.81;;;9.78;100.00
46087;BME280;31824;49.648;8.640;2022-11-04T06:59:51;99377.06;;;9.88;100.00
46087;BME280;31824;49.648;8.640;2022-11-04T07:02:52;99369.44;;;9.91;100.00
46087;BME280;31824;49.648;8.640;2022-11-04T07:05:54;99371.16;;;9.90;100.00
46087;BME280;31824;49.648;8.640;2022-11-04T07:08:59;99367.06;;;9.94;100.00
46087;BME280;31824;49.648;8.640;2022-11-04T07:12:01;99378.91;;;9.89;100.00
46087;BME280;31824;49.648;8.640;2022-11-04T07:15:03;99378.09;;;9.90;100.00
46087;BME280;31824;49.648;8.640;2022-11-04T07:18:05;99382.19;;;9.86;100.00
46087;BME280;31824;49.648;8.640;2022-11-04T07:21:08;99392.03;;;9.89;100.00
46087;BME280;31824;49.648;8.640;2022-11-04T07:24:12;99401.59;;;9.88;100.00
46087;BME280;31824;49.648;8.640;2022-11-04T07:27:14;99411.31;;;9.89;100.00
46087;BME280;31824;49.648;8.640;2022-11-04T07:30:15;99410.53;;;9.90;100.00
46087;BME280;31824;49.648;8.640;2022-11-04T07:33:17;99414.44;;;9.95;100.00
46087;BME280;31824;49.648;8.640;2022-11-04T07:36:19;99431.09;;;9.96;100.00
46087;BME280;31824;49.648;8.640;2022-11-04T07:39:22;99434.38;;;9.93;100.00
46087;BME280;31824;49.648;8.640;2022-11-04T07:42:23;99440.00;;;9.98;100.00
46087;BME280;31824;49.648;8.640;2022-11-04T07:45:28;99429.38;;;9.96;100.00
46087;BME280;31824;49.648;8.640;2022-11-04T07:48:30;99434.09;;;10.01;100.00
46087;BME280;31824;49.648;8.640;2022-11-04T07:51:32;99430.00;;;10.04;100.00
46087;BME280;31824;49.648;8.640;2022-11-04T07:54:36;99434.72;;;10.08;100.00
46087;BME280;31824;49.648;8.640;2022-11-04T07:57:37;99425.53;;;10.03;100.00
46087;BME280;31824;49.648;8.640;2022-11-04T08:00:39;99418.44;;;10.12;100.00
46087;BME280;31824;49.648;8.640;2022-11-04T08:03:42;99409.00;;;10.14;100.00
46087;BME280;31824;49.648;8.640;2022-11-04T08:06:43;99409.22;;;10.18;100.00
46087;BME280;31824;49.648;8.640;2022-11-04T08:09:47;99410.13;;;10.18;100.00
46087;BME280;31824;49.648;8.640;2022-11-04T08:12:50;99404.22;;;10.21;100.00
46087;BME280;31824;49.648;8.640;2022-11-04T08:15:52;99403.97;;;10.18;100.00
46087;BME280;31824;49.648;8.640;2022-11-04T08:18:53;99394.50;;;10.20;100.00
46087;BME280;31824;49.648;8.640;2022-11-04T08:21:56;99399.22;;;10.24;100.00
46087;BME280;31824;49.648;8.640;2022-11-04T08:24:59;99391.34;;;10.24;100.00
46087;BME280;31824;49.648;8.640;2022-11-04T08:28:00;99388.44;;;10.31;100.00
46087;BME280;31824;49.648;8.640;2022-11-04T08:31:04;99394.47;;;10.30;100.00
46087;BME280;31824;49.648;8.640;2022-11-04T08:34:06;99409.81;;;10.36;100.00
46087;BME280;31824;49.648;8.640;2022-11-04T08:37:09;99389.22;;;10.40;100.00
46087;BME280;31824;49.648;8.640;2022-11-04T08:40:14;99387.09;;;10.36;100.00
46087;BME280;31824;49.648;8.640;2022-11-04T08:43:16;99391.53;;;10.47;100.00
46087;BME280;31824;49.648;8.640;2022-11-04T08:46:18;99390.72;;;10.49;100.00
46087;BME280;31824;49.648;8.640;2022-11-04T08:49:20;99381.63;;;10.55;100.00
46087;BME280;31824;49.648;8.640;2022-11-04T08:52:22;99387.59;;;10.64;100.00
46087;BME280;31824;49.648;8.640;2022-11-04T08:55:27;99392.06;;;10.66;100.00
46087;BME280;31824;49.648;8.640;2022-11-04T08:58:29;99396.53;;;10.67;100.00
46087;BME280;31824;49.648;8.640;2022-11-04T09:01:32;99404.28;;;10.65;100.00
46087;BME280;31824;49.648;8.640;2022-11-04T09:04:36;99399.94;;;10.66;100.00
46087;BME280;31824;49.648;8.640;2022-11-04T09:07:38;99411.84;;;10.72;100.00
46087;BME280;31824;49.648;8.640;2022-11-04T09:10:41;99406.16;;;10.78;100.00
46087;BME280;31824;49.648;8.640;2022-11-04T09:13:44;99399.78;;;10.86;100.00
46087;BME280;31824;49.648;8.640;2022-11-04T09:16:46;99401.41;;;10.84;100.00
46087;BME280;31824;49.648;8.640;2022-11-04T09:19:47;99400.94;;;10.90;100.00
46087;BME280;31824;49.648;8.640;2022-11-04T09:22:49;99400.50;;;10.95;100.00
46087;BME280;31824;49.648;8.640;2022-11-04T09:25:52;99412.75;;;10.95;100.00
46087;BME280;31824;49.648;8.640;2022-11-04T09:28:56;99406.44;;;10.93;100.00
46087;BME280;31824;49.648;8.640;2022-11-04T09:31:59;99404.75;;;10.93;100.00
46087;BME280;31824;49.648;8.640;2022-11-04T09:35:01;99415.94;;;11.03;100.00
46087;BME280;31824;49.648;8.640;2022-11-04T09:38:03;99423.53;;;11.10;100.00
46087;BME280;31824;49.648;8.640;2022-11-04T09:41:27;99428.91;;;11.11;100.00
46087;BME280;31824;49.648;8.640;2022-11-04T09:44:42;99429.81;;;11.12;100.00
46087;BME280;31824;49.648;8.640;2022-11-04T09:48:07;99439.88;;;11.18;100.00
46087;BME280;31824;49.648;8.640;2022-11-04T09:51:12;99447.34;;;11.23;100.00
46087;BME280;31824;49.648;8.640;2022-11-04T09:54:44;99441.31;;;11.36;100.00
46087;BME280;31824;49.648;8.640;2022-11-04T09:57:53;99444.53;;;11.44;100.00
46087;BME280;31824;49.648;8.640;2022-11-04T10:01:00;99445.22;;;11.53;100.00
46087;BME280;31824;49.648;8.640;2022-11-04T10:04:12;99446.59;;;11.48;100.00
46087;BME280;31824;49.648;8.640;2022-11-04T10:07:32;99455.88;;;11.66;100.00
46087;BME280;31824;49.648;8.640;2022-11-04T10:10:42;99450.53;;;11.77;100.00
46087;BME280;31824;49.648;8.640;2022-11-04T10:14:06;99455.13;;;11.79;100.00
46087;BME280;31824;49.648;8.640;2022-11-04T10:17:26;99442.63;;;11.77;100.00
46087;BME280;31824;49.648;8.640;2022-11-04T10:20:46;99442.41;;;11.74;100.00
46087;BME280;31824;49.648;8.640;2022-11-04T10:24:03;99435.97;;;11.58;100.00
46087;BME280;31824;49.648;8.640;2022-11-04T10:27:12;99436.91;;;11.59;100.00
46087;BME280;31824;49.648;8.640;2022-11-04T10:30:19;99433.34;;;11.46;100.00
46087;BME280;31824;49.648;8.640;2022-11-04T10:33:25;99433.94;;;11.66;100.00
46087;BME280;31824;49.648;8.640;2022-11-04T10:36:30;99436.22;;;11.61;100.00
46087;BME280;31824;49.648;8.640;2022-11-04T10:39:36;99431.69;;;11.37;100.00
46087;BME280;31824;49.648;8.640;2022-11-04T10:42:41;99427.16;;;11.46;100.00
46087;BME280;31824;49.648;8.640;2022-11-04T10:45:49;99429.88;;;11.47;100.00
46087;BME280;31824;49.648;8.640;2022-11-04T10:48:57;99425.00;;;11.52;100.00
46087;BME280;31824;49.648;8.640;2022-11-04T10:52:02;99427.19;;;11.58;100.00
46087;BME280;31824;49.648;8.640;2022-11-04T10:55:12;99411.75;;;11.51;100.00
46087;BME280;31824;49.648;8.640;2022-11-04T10:58:20;99413.81;;;11.78;100.00
46087;BME280;31824;49.648;8.640;2022-11-04T11:01:27;99406.59;;;12.11;100.00
46087;BME280;31824;49.648;8.640;2022-11-04T11:04:30;99407.50;;;12.24;100.00
46087;BME280;31824;49.648;8.640;2022-11-04T11:07:35;99415.41;;;12.24;100.00
46087;BME280;31824;49.648;8.640;2022-11-04T11:10:50;99405.81;;;11.89;100.00
46087;BME280;31824;49.648;8.640;2022-11-04T11:13:52;99408.00;;;11.94;100.00
46087;BME280;31824;49.648;8.640;2022-11-04T11:16:55;99405.34;;;12.18;100.00
46087;BME280;31824;49.648;8.640;2022-11-04T11:19:59;99406.78;;;12.38;100.00
46087;BME280;31824;49.648;8.640;2022-11-04T11:23:03;99416.53;;;12.27;100.00
46087;BME280;31824;49.648;8.640;2022-11-04T11:26:12;99407.75;;;12.27;100.00
46087;BME280;31824;49.648;8.640;2022-11-04T11:29:20;99403.28;;;12.14;100.00
46087;BME280;31824;49.648;8.640;2022-11-04T11:32:29;99407.53;;;12.00;100.00
46087;BME280;31824;49.648;8.640;2022-11-04T11:35:34;99403.66;;;12.07;100.00
46087;BME280;31824;49.648;8.640;2022-11-04T11:38:52;99399.75;;;12.25;100.00
46087;BME280;31824;49.648;8.640;2022-11-04T11:41:58;99404.28;;;12.28;100.00
46087;BME280;31824;49.648;8.640;2022-11-04T11:45:00;99395.66;;;12.54;100.00
46087;BME280;31824;49.648;8.640;2022-11-04T11:48:26;99390.41;;;12.42;100.00
46087;BME280;31824;49.648;8.640;2022-11-04T11:51:30;99395.38;;;12.26;100.00
46087;BME280;31824;49.648;8.640;2022-11-04T11:54:35;99391.78;;;12.37;100.00
46087;BME280;31824;49.648;8.640;2022-11-04T11:57:48;99399.28;;;12.56;100.00
46087;BME280;31824;49.648;8.640;2022-11-04T12:01:16;99384.28;;;12.18;100.00
46087;BME280;31824;49.648;8.640;2022-11-04T12:04:27;99382.88;;;12.35;100.00
46087;BME280;31824;49.648;8.640;2022-11-04T12:07:55;99379.56;;;12.63;100.00
46087;BME280;31824;49.648;8.640;2022-11-04T12:11:27;99377.81;;;12.38;100.00
46087;BME280;31824;49.648;8.640;2022-11-04T12:14:41;99380.44;;;12.50;100.00
46087;BME280;31824;49.648;8.640;2022-11-04T12:17:57;99374.16;;;12.36;100.00
46087;BME280;31824;49.648;8.640;2022-11-04T12:21:11;99369.34;;;12.42;100.00
46087;BME280;31824;49.648;8.640;2022-11-04T12:24:16;99364.44;;;12.35;100.00
46087;BME280;31824;49.648;8.640;2022-11-04T12:27:27;99366.09;;;12.09;100.00
46087;BME280;31824;49.648;8.640;2022-11-04T12:30:34;99367.09;;;12.23;100.00
46087;BME280;31824;49.648;8.640;2022-11-04T12:33:44;99372.56;;;12.26;100.00
46087;BME280;31824;49.648;8.640;2022-11-04T12:37:02;99373.72;;;12.30;100.00
46087;BME280;31824;49.648;8.640;2022-11-04T12:40:15;99371.00;;;12.16;100.00
46087;BME280;31824;49.648;8.640;2022-11-04T12:43:24;99377.78;;;12.01;100.00
46087;BME280;31824;49.648;8.640;2022-11-04T12:46:36;99383.94;;;11.90;100.00
46087;BME280;31824;49.648;8.640;2022-11-04T12:49:51;99391.16;;;11.69;100.00
46087;BME280;31824;49.648;8.640;2022-11-04T12:53:22;99393.56;;;11.54;100.00
46087;BME280;31824;49.648;8.640;2022-11-04T12:56:34;99400.16;;;11.48;100.00
46087;BME280;31824;49.648;8.640;2022-11-04T12:59:46;99402.19;;;11.17;100.00
46087;BME280;31824;49.648;8.640;2022-11-04T13:02:56;99416.59;;;11.22;100.00
46087;BME280;31824;49.648;8.640;2022-11-04T13:06:03;99417.59;;;11.12;100.00
46087;BME280;31824;49.648;8.640;2022-11-04T13:09:12;99415.66;;;11.10;100.00
46087;BME280;31824;49.648;8.640;2022-11-04T13:12:16;99425.72;;;11.15;100.00
46087;BME280;31824;49.648;8.640;2022-11-04T13:15:21;99430.88;;;11.26;100.00
46087;BME280;31824;49.648;8.640;2022-11-04T13:18:26;99429.41;;;11.29;100.00
46087;BME280;31824;49.648;8.640;2022-11-04T13:21:34;99433.09;;;11.43;100.00
46087;BME280;31824;49.648;8.640;2022-11-04T13:24:39;99442.16;;;11.59;100.00
46087;BME280;31824;49.648;8.640;2022-11-04T13:27:45;99443.66;;;11.67;100.00
46087;BME280;31824;49.648;8.640;2022-11-04T13:30:59;99452.25;;;11.64;100.00
46087;BME280;31824;49.648;8.640;2022-11-04T13:34:09;99445.03;;;11.62;100.00
46087;BME280;31824;49.648;8.640;2022-11-04T13:37:23;99454.94;;;11.54;100.00
46087;BME280;31824;49.648;8.640;2022-11-04T13:40:34;99453.25;;;11.55;100.00
46087;BME280;31824;49.648;8.640;2022-11-04T13:43:45;99451.59;;;11.45;100.00
46087;BME280;31824;49.648;8.640;2022-11-04T13:46:51;99460.31;;;11.56;100.00
46087;BME280;31824;49.648;8.640;2022-11-04T13:49:54;99463.06;;;11.45;100.00
46087;BME280;31824;49.648;8.640;2022-11-04T13:52:56;99470.63;;;11.53;100.00
46087;BME280;31824;49.648;8.640;2022-11-04T13:55:59;99479.66;;;11.68;100.00
46087;BME280;31824;49.648;8.640;2022-11-04T13:59:25;99474.94;;;12.10;100.00
46087;BME280;31824;49.648;8.640;2022-11-04T14:02:39;99474.03;;;12.09;100.00
46087;BME280;31824;49.648;8.640;2022-11-04T14:05:54;99478.66;;;11.90;100.00
46087;BME280;31824;49.648;8.640;2022-11-04T14:12:41;99485.88;;;11.92;100.00
46087;BME280;31824;49.648;8.640;2022-11-04T14:16:00;99483.59;;;11.85;100.00
46087;BME280;31824;49.648;8.640;2022-11-04T14:22:47;99486.34;;;11.87;100.00
46087;BME280;31824;49.648;8.640;2022-11-04T14:25:58;99488.41;;;11.91;100.00
46087;BME280;31824;49.648;8.640;2022-11-04T14:29:06;99485.81;;;12.03;100.00
46087;BME280;31824;49.648;8.640;2022-11-04T14:32:11;99488.34;;;12.01;100.00
46087;BME280;31824;49.648;8.640;2022-11-04T14:35:16;99486.47;;;11.88;100.00
46087;BME280;31824;49.648;8.640;2022-11-04T14:38:26;99489.09;;;11.88;100.00
46087;BME280;31824;49.648;8.640;2022-11-04T14:41:48;99491.50;;;11.85;100.00
46087;BME280;31824;49.648;8.640;2022-11-04T14:44:51;99499.41;;;11.85;100.00
46087;BME280;31824;49.648;8.640;2022-11-04T14:47:55;99504.19;;;11.79;100.00
46087;BME280;31824;49.648;8.640;2022-11-04T14:50:58;99503.16;;;11.77;100.00
46087;BME280;31824;49.648;8.640;2022-11-04T14:54:03;99508.53;;;11.78;100.00
46087;BME280;31824;49.648;8.640;2022-11-04T14:57:11;99501.44;;;11.65;100.00
46087;BME280;31824;49.648;8.640;2022-11-04T15:00:31;99507.38;;;11.63;100.00
46087;BME280;31824;49.648;8.640;2022-11-04T15:03:36;99513.88;;;11.56;100.00
46087;BME280;31824;49.648;8.640;2022-11-04T15:07:00;99511.13;;;11.55;100.00
46087;BME280;31824;49.648;8.640;2022-11-04T15:10:18;99510.41;;;11.45;100.00
46087;BME280;31824;49.648;8.640;2022-11-04T15:13:20;99514.06;;;11.47;100.00
46087;BME280;31824;49.648;8.640;2022-11-04T15:16:25;99519.75;;;11.42;100.00
46087;BME280;31824;49.648;8.640;2022-11-04T15:19:29;99517.50;;;11.46;100.00
46087;BME280;31824;49.648;8.640;2022-11-04T15:22:31;99521.94;;;11.47;100.00
46087;BME280;31824;49.648;8.640;2022-11-04T15:25:33;99516.34;;;11.43;100.00
46087;BME280;31824;49.648;8.640;2022-11-04T15:28:42;99513.50;;;11.18;100.00
46087;BME280;31824;49.648;8.640;2022-11-04T15:31:57;99529.16;;;10.94;100.00
46087;BME280;31824;49.648;8.640;2022-11-04T15:34:59;99531.03;;;10.85;100.00
46087;BME280;31824;49.648;8.640;2022-11-04T15:38:01;99537.63;;;10.79;100.00
46087;BME280;31824;49.648;8.640;2022-11-04T15:41:04;99550.84;;;10.59;100.00
46087;BME280;31824;49.648;8.640;2022-11-04T15:44:27;99554.03;;;10.55;100.00
46087;BME280;31824;49.648;8.640;2022-11-04T15:47:31;99557.38;;;10.42;100.00
46087;BME280;31824;49.648;8.640;2022-11-04T15:50:33;99570.09;;;10.37;100.00
46087;BME280;31824;49.648;8.640;2022-11-04T15:53:38;99577.16;;;10.28;100.00
46087;BME280;31824;49.648;8.640;2022-11-04T15:56:50;99571.13;;;10.29;100.00
46087;BME280;31824;49.648;8.640;2022-11-04T15:59:56;99579.81;;;10.38;100.00
46087;BME280;31824;49.648;8.640;2022-11-04T16:03:00;99583.47;;;10.30;100.00
46087;BME280;31824;49.648;8.640;2022-11-04T16:06:05;99585.31;;;10.31;100.00
46087;BME280;31824;49.648;8.640;2022-11-04T16:09:19;99590.44;;;10.40;100.00
46087;BME280;31824;49.648;8.640;2022-11-04T16:12:26;99598.44;;;10.41;100.00
46087;BME280;31824;49.648;8.640;2022-11-04T16:15:30;99596.09;;;10.44;100.00
46087;BME280;31824;49.648;8.640;2022-11-04T16:18:35;99589.78;;;10.42;100.00
46087;BME280;31824;49.648;8.640;2022-11-04T16:21:37;99602.25;;;10.24;100.00
46087;BME280;31824;49.648;8.640;2022-11-04T16:24:45;99602.88;;;10.32;100.00
46087;BME280;31824;49.648;8.640;2022-11-04T16:27:49;99595.31;;;10.35;100.00